sensor_id;sensor_type;location;lat;lon;timestamp;pressure;altitude;pressure_sealevel;temperature;humidity
54936;BME280;40838;50.676;7.838;2023-04-29T00:01:16;97970.03;;;8.50;100.00
54936;BME280;40838;50.676;7.838;2023-04-29T00:03:43;97972.31;;;8.07;100.00
54936;BME280;40838;50.676;7.838;2023-04-29T00:06:09;97972.47;;;8.41;100.00
54936;BME280;40838;50.676;7.838;2023-04-29T00:08:36;97970.81;;;8.50;100.00
54936;BME280;40838;50.676;7.838;2023-04-29T00:11:03;97973.00;;;8.43;100.00
54936;BME280;40838;50.676;7.838;2023-04-29T00:13:29;97971.91;;;8.55;100.00
54936;BME280;40838;50.676;7.838;2023-04-29T00:15:57;97968.41;;;8.64;100.00
54936;BME280;40838;50.676;7.838;2023-04-29T00:18:24;97961.84;;;8.46;100.00
54936;BME280;40838;50.676;7.838;2023-04-29T00:20:51;97972.47;;;8.41;100.00
54936;BME280;40838;50.676;7.838;2023-04-29T00:23:17;97974.31;;;8.46;100.00
54936;BME280;40838;50.676;7.838;2023-04-29T00:25:44;97970.31;;;8.48;100.00
54936;BME280;40838;50.676;7.838;2023-04-29T00:28:10;97975.16;;;8.36;100.00
54936;BME280;40838;50.676;7.838;2023-04-29T00:30:37;97970.09;;;8.40;100.00
54936;BME280;40838;50.676;7.838;2023-04-29T00:33:05;97969.81;;;8.41;100.00
54936;BME280;40838;50.676;7.838;2023-04-29T00:35:31;97970.94;;;8.20;100.00
54936;BME280;40838;50.676;7.838;2023-04-29T00:37:58;97977.31;;;8.19;100.00
54936;BME280;40838;50.676;7.838;2023-04-29T00:40:26;97976.19;;;8.35;100.00
54936;BME280;40838;50.676;7.838;2023-04-29T00:42:53;97970.66;;;8.32;100.00
54936;BME280;40838;50.676;7.838;2023-04-29T00:45:19;97979.47;;;7.86;100.00
54936;BME280;40838;50.676;7.838;2023-04-29T00:47:46;97989.00;;;8.13;100.00
54936;BME280;40838;50.676;7.838;2023-04-29T00:50:14;97987.22;;;7.67;100.00
54936;BME280;40838;50.676;7.838;2023-04-29T00:52:41;97997.81;;;7.72;100.00
54936;BME280;40838;50.676;7.838;2023-04-29T00:55:08;98002.84;;;7.43;100.00
54936;BME280;40838;50.676;7.838;2023-04-29T00:57:37;98007.78;;;6.99;100.00
54936;BME280;40838;50.676;7.838;2023-04-29T01:00:04;98009.66;;;7.19;100.00
54936;BME280;40838;50.676;7.838;2023-04-29T01:02:31;98008.16;;;7.58;100.00
54936;BME280;40838;50.676;7.838;2023-04-29T01:04:58;98007.09;;;7.54;100.00
54936;BME280;40838;50.676;7.838;2023-04-29T01:07:29;98010.78;;;7.53;100.00
54936;BME280;40838;50.676;7.838;2023-04-29T01:10:00;98015.31;;;7.58;100.00
54936;BME280;40838;50.676;7.838;2023-04-29T01:12:32;98015.31;;;7.63;100.00
54936;BME280;40838;50.676;7.838;2023-04-29T01:15:03;98022.47;;;7.57;100.00
54936;BME280;40838;50.676;7.838;2023-04-29T01:17:35;98015.03;;;7.59;100.00
54936;BME280;40838;50.676;7.838;2023-04-29T01:20:04;98020.03;;;7.30;100.00
54936;BME280;40838;50.676;7.838;2023-04-29T01:22:33;98015.31;;;7.43;100.00
54936;BME280;40838;50.676;7.838;2023-04-29T01:25:02;98021.13;;;7.50;100.00
54936;BME280;40838;50.676;7.838;2023-04-29T01:27:30;98023.25;;;7.78;100.00
54936;BME280;40838;50.676;7.838;2023-04-29T01:30:11;98023.78;;;7.65;100.00
54936;BME280;40838;50.676;7.838;2023-04-29T01:32:45;98022.72;;;7.41;100.00
54936;BME280;40838;50.676;7.838;2023-04-29T01:35:21;98026.44;;;7.50;100.00
54936;BME280;40838;50.676;7.838;2023-04-29T01:37:55;98018.47;;;7.60;100.00
54936;BME280;40838;50.676;7.838;2023-04-29T01:40:29;98026.41;;;7.39;100.00
54936;BME280;40838;50.676;7.838;2023-04-29T01:43:06;98031.22;;;7.78;100.00
54936;BME280;40838;50.676;7.838;2023-04-29T01:45:37;98034.91;;;7.62;100.00
54936;BME280;40838;50.676;7.838;2023-04-29T01:48:06;98032.25;;;7.57;100.00
54936;BME280;40838;50.676;7.838;2023-04-29T01:50:33;98034.91;;;7.47;100.00
54936;BME280;40838;50.676;7.838;2023-04-29T01:53:10;98034.13;;;7.46;100.00
54936;BME280;40838;50.676;7.838;2023-04-29T01:55:38;98034.91;;;7.42;100.00
54936;BME280;40838;50.676;7.838;2023-04-29T01:58:16;98030.16;;;7.59;100.00
54936;BME280;40838;50.676;7.838;2023-04-29T02:00:55;98043.63;;;7.27;100.00
54936;BME280;40838;50.676;7.838;2023-04-29T02:03:22;98034.34;;;7.29;100.00
54936;BME280;40838;50.676;7.838;2023-04-29T02:05:53;98038.22;;;6.96;100.00
54936;BME280;40838;50.676;7.838;2023-04-29T02:08:19;98042.47;;;7.02;100.00
54936;BME280;40838;50.676;7.838;2023-04-29T02:10:54;98048.28;;;6.99;100.00
54936;BME280;40838;50.676;7.838;2023-04-29T02:13:33;98050.94;;;7.04;100.00
54936;BME280;40838;50.676;7.838;2023-04-29T02:16:06;98054.22;;;7.27;100.00
54936;BME280;40838;50.676;7.838;2023-04-29T02:18:32;98050.19;;;7.19;100.00
54936;BME280;40838;50.676;7.838;2023-04-29T02:20:59;98045.13;;;7.12;100.00
54936;BME280;40838;50.676;7.838;2023-04-29T02:23:27;98052.03;;;7.19;100.00
54936;BME280;40838;50.676;7.838;2023-04-29T02:25:56;98048.06;;;7.21;100.00
54936;BME280;40838;50.676;7.838;2023-04-29T02:28:23;98052.72;;;6.83;100.00
54936;BME280;40838;50.676;7.838;2023-04-29T02:30:49;98057.59;;;7.17;100.00
54936;BME280;40838;50.676;7.838;2023-04-29T02:33:16;98050.69;;;7.06;100.00
54936;BME280;40838;50.676;7.838;2023-04-29T02:35:43;98057.31;;;7.08;100.00
54936;BME280;40838;50.676;7.838;2023-04-29T02:38:10;98052.03;;;7.19;100.00
54936;BME280;40838;50.676;7.838;2023-04-29T02:40:39;98050.41;;;7.07;100.00
54936;BME280;40838;50.676;7.838;2023-04-29T02:43:08;98052.34;;;7.22;100.00
54936;BME280;40838;50.676;7.838;2023-04-29T02:45:35;98053.91;;;7.23;100.00
54936;BME280;40838;50.676;7.838;2023-04-29T02:48:03;98057.06;;;7.15;100.00
54936;BME280;40838;50.676;7.838;2023-04-29T02:50:30;98048.56;;;7.03;100.00
54936;BME280;40838;50.676;7.838;2023-04-29T02:52:57;98059.22;;;7.23;100.00
54936;BME280;40838;50.676;7.838;2023-04-29T02:55:24;98053.97;;;7.28;100.00
54936;BME280;40838;50.676;7.838;2023-04-29T02:57:52;98058.72;;;7.26;100.00
54936;BME280;40838;50.676;7.838;2023-04-29T03:00:20;98059.94;;;7.03;100.00
54936;BME280;40838;50.676;7.838;2023-04-29T03:02:47;98058.13;;;7.19;100.00
54936;BME280;40838;50.676;7.838;2023-04-29T03:05:14;98061.69;;;6.77;100.00
54936;BME280;40838;50.676;7.838;2023-04-29T03:07:41;98061.13;;;6.65;100.00
54936;BME280;40838;50.676;7.838;2023-04-29T03:10:10;98064.00;;;6.58;100.00
54936;BME280;40838;50.676;7.838;2023-04-29T03:12:37;98059.31;;;6.81;100.00
54936;BME280;40838;50.676;7.838;2023-04-29T03:15:05;98066.16;;;6.71;100.00
54936;BME280;40838;50.676;7.838;2023-04-29T03:17:33;98066.13;;;6.66;100.00
54936;BME280;40838;50.676;7.838;2023-04-29T03:20:00;98065.09;;;6.67;100.00
54936;BME280;40838;50.676;7.838;2023-04-29T03:22:27;98068.34;;;6.85;100.00
54936;BME280;40838;50.676;7.838;2023-04-29T03:24:54;98068.84;;;6.77;100.00
54936;BME280;40838;50.676;7.838;2023-04-29T03:27:21;98063.69;;;6.50;100.00
54936;BME280;40838;50.676;7.838;2023-04-29T03:29:48;98066.16;;;6.71;100.00
54936;BME280;40838;50.676;7.838;2023-04-29T03:32:14;98067.44;;;6.59;100.00
54936;BME280;40838;50.676;7.838;2023-04-29T03:34:44;98070.47;;;6.83;100.00
54936;BME280;40838;50.676;7.838;2023-04-29T03:37:22;98070.84;;;6.49;100.00
54936;BME280;40838;50.676;7.838;2023-04-29T03:39:55;98070.84;;;6.49;100.00
54936;BME280;40838;50.676;7.838;2023-04-29T03:42:21;98079.59;;;6.60;100.00
54936;BME280;40838;50.676;7.838;2023-04-29T03:44:48;98075.66;;;6.62;100.00
54936;BME280;40838;50.676;7.838;2023-04-29T03:47:15;98080.44;;;6.65;100.00
54936;BME280;40838;50.676;7.838;2023-04-29T03:49:41;98086.69;;;6.44;100.00
54936;BME280;40838;50.676;7.838;2023-04-29T03:52:09;98082.38;;;6.85;100.00
54936;BME280;40838;50.676;7.838;2023-04-29T03:54:37;98084.19;;;6.69;100.00
54936;BME280;40838;50.676;7.838;2023-04-29T03:57:04;98079.69;;;6.75;100.00
54936;BME280;40838;50.676;7.838;2023-04-29T03:59:32;98079.47;;;6.82;100.00
54936;BME280;40838;50.676;7.838;2023-04-29T04:01:59;98075.50;;;6.89;100.00
54936;BME280;40838;50.676;7.838;2023-04-29T04:04:26;98078.81;;;7.17;100.00
54936;BME280;40838;50.676;7.838;2023-04-29T04:06:52;98079.78;;;6.90;100.00
54936;BME280;40838;50.676;7.838;2023-04-29T04:09:25;98086.81;;;6.69;100.00
54936;BME280;40838;50.676;7.838;2023-04-29T04:11:51;98097.69;;;6.73;100.00
54936;BME280;40838;50.676;7.838;2023-04-29T04:14:19;98093.47;;;6.77;100.00
54936;BME280;40838;50.676;7.838;2023-04-29T04:16:45;98096.16;;;6.40;100.00
54936;BME280;40838;50.676;7.838;2023-04-29T04:19:15;98092.91;;;6.70;100.00
54936;BME280;40838;50.676;7.838;2023-04-29T04:21:44;98100.88;;;6.80;100.00
54936;BME280;40838;50.676;7.838;2023-04-29T04:24:10;98104.97;;;6.51;100.00
54936;BME280;40838;50.676;7.838;2023-04-29T04:26:39;98099.53;;;6.30;100.00
54936;BME280;40838;50.676;7.838;2023-04-29T04:29:29;98105.91;;;6.34;100.00
54936;BME280;40838;50.676;7.838;2023-04-29T04:31:58;98106.41;;;6.31;100.00
54936;BME280;40838;50.676;7.838;2023-04-29T04:34:25;98106.78;;;6.45;100.00
54936;BME280;40838;50.676;7.838;2023-04-29T04:36:54;98111.19;;;6.34;100.00
54936;BME280;40838;50.676;7.838;2023-04-29T04:39:21;98116.72;;;6.28;100.00
54936;BME280;40838;50.676;7.838;2023-04-29T04:41:51;98113.41;;;6.47;100.00
54936;BME280;40838;50.676;7.838;2023-04-29T04:44:18;98118.34;;;6.76;100.00
54936;BME280;40838;50.676;7.838;2023-04-29T04:47:08;98125.34;;;6.50;100.00
54936;BME280;40838;50.676;7.838;2023-04-29T04:49:48;98133.09;;;6.62;100.00
54936;BME280;40838;50.676;7.838;2023-04-29T04:52:18;98132.81;;;6.58;100.00
54936;BME280;40838;50.676;7.838;2023-04-29T04:54:48;98136.03;;;6.28;100.00
54936;BME280;40838;50.676;7.838;2023-04-29T04:57:22;98137.19;;;6.37;100.00
54936;BME280;40838;50.676;7.838;2023-04-29T04:59:48;98142.78;;;6.14;100.00
54936;BME280;40838;50.676;7.838;2023-04-29T05:02:16;98138.66;;;6.28;100.00
54936;BME280;40838;50.676;7.838;2023-04-29T05:04:43;98142.75;;;6.46;100.00
54936;BME280;40838;50.676;7.838;2023-04-29T05:07:12;98152.44;;;6.30;100.00
54936;BME280;40838;50.676;7.838;2023-04-29T05:09:56;98154.38;;;5.80;100.00
54936;BME280;40838;50.676;7.838;2023-04-29T05:12:24;98150.03;;;6.23;100.00
54936;BME280;40838;50.676;7.838;2023-04-29T05:14:55;98147.25;;;6.45;100.00
54936;BME280;40838;50.676;7.838;2023-04-29T05:17:25;98158.13;;;6.12;100.00
54936;BME280;40838;50.676;7.838;2023-04-29T05:19:51;98166.97;;;5.95;100.00
54936;BME280;40838;50.676;7.838;2023-04-29T05:22:18;98166.72;;;5.97;100.00
54936;BME280;40838;50.676;7.838;2023-04-29T05:24:46;98170.78;;;6.10;100.00
54936;BME280;40838;50.676;7.838;2023-04-29T05:27:14;98168.66;;;6.07;100.00
54936;BME280;40838;50.676;7.838;2023-04-29T05:29:42;98176.81;;;6.00;100.00
54936;BME280;40838;50.676;7.838;2023-04-29T05:32:10;98170.06;;;6.14;100.00
54936;BME280;40838;50.676;7.838;2023-04-29T05:34:38;98177.53;;;5.95;100.00
54936;BME280;40838;50.676;7.838;2023-04-29T05:37:04;98182.81;;;5.95;100.00
54936;BME280;40838;50.676;7.838;2023-04-29T05:39:39;98182.72;;;6.12;100.00
54936;BME280;40838;50.676;7.838;2023-04-29T05:42:11;98190.25;;;5.98;100.00
54936;BME280;40838;50.676;7.838;2023-04-29T05:44:44;98191.69;;;6.38;100.00
54936;BME280;40838;50.676;7.838;2023-04-29T05:47:17;98186.88;;;6.35;100.00
54936;BME280;40838;50.676;7.838;2023-04-29T05:49:44;98198.31;;;6.09;100.00
54936;BME280;40838;50.676;7.838;2023-04-29T05:52:11;98197.03;;;6.16;100.00
54936;BME280;40838;50.676;7.838;2023-04-29T05:54:43;98205.94;;;6.05;100.00
54936;BME280;40838;50.676;7.838;2023-04-29T05:57:10;98208.09;;;6.08;100.00
54936;BME280;40838;50.676;7.838;2023-04-29T05:59:38;98207.66;;;6.21;100.00
54936;BME280;40838;50.676;7.838;2023-04-29T06:02:06;98218.88;;;5.79;100.00
54936;BME280;40838;50.676;7.838;2023-04-29T06:04:36;98218.34;;;5.55;100.00
54936;BME280;40838;50.676;7.838;2023-04-29T06:07:25;98225.16;;;5.73;100.00
54936;BME280;40838;50.676;7.838;2023-04-29T06:10:12;98236.50;;;5.96;100.00
54936;BME280;40838;50.676;7.838;2023-04-29T06:12:42;98237.41;;;6.07;100.00
54936;BME280;40838;50.676;7.838;2023-04-29T06:15:11;98234.88;;;6.17;100.00
54936;BME280;40838;50.676;7.838;2023-04-29T06:17:39;98240.81;;;5.80;100.00
54936;BME280;40838;50.676;7.838;2023-04-29T06:20:06;98242.84;;;5.95;100.00
54936;BME280;40838;50.676;7.838;2023-04-29T06:22:33;98247.91;;;5.96;100.00
54936;BME280;40838;50.676;7.838;2023-04-29T06:24:59;98250.78;;;5.95;100.00
54936;BME280;40838;50.676;7.838;2023-04-29T06:27:39;98253.84;;;5.87;100.00
54936;BME280;40838;50.676;7.838;2023-04-29T06:30:06;98255.78;;;6.18;100.00
54936;BME280;40838;50.676;7.838;2023-04-29T06:32:33;98259.91;;;6.09;100.00
54936;BME280;40838;50.676;7.838;2023-04-29T06:35:01;98266.72;;;6.00;100.00
54936;BME280;40838;50.676;7.838;2023-04-29T06:37:49;98272.50;;;5.97;100.00
54936;BME280;40838;50.676;7.838;2023-04-29T06:40:35;98272.34;;;6.09;100.00
54936;BME280;40838;50.676;7.838;2023-04-29T06:43:29;98273.69;;;6.11;100.00
54936;BME280;40838;50.676;7.838;2023-04-29T06:46:30;98278.34;;;6.26;100.00
54936;BME280;40838;50.676;7.838;2023-04-29T06:49:14;98287.84;;;6.00;100.00
54936;BME280;40838;50.676;7.838;2023-04-29T06:51:45;98292.00;;;6.18;100.00
54936;BME280;40838;50.676;7.838;2023-04-29T06:54:13;98294.94;;;5.94;100.00
54936;BME280;40838;50.676;7.838;2023-04-29T06:56:40;98289.09;;;5.92;100.00
54936;BME280;40838;50.676;7.838;2023-04-29T06:59:07;98304.44;;;5.95;100.00
54936;BME280;40838;50.676;7.838;2023-04-29T07:01:34;98303.38;;;6.45;100.00
54936;BME280;40838;50.676;7.838;2023-04-29T07:04:01;98304.38;;;6.12;100.00
54936;BME280;40838;50.676;7.838;2023-04-29T07:06:28;98310.94;;;5.66;100.00
54936;BME280;40838;50.676;7.838;2023-04-29T07:08:56;98312.69;;;5.99;100.00
54936;BME280;40838;50.676;7.838;2023-04-29T07:11:23;98314.53;;;6.20;100.00
54936;BME280;40838;50.676;7.838;2023-04-29T07:13:51;98315.75;;;6.13;100.00
54936;BME280;40838;50.676;7.838;2023-04-29T07:16:17;98321.00;;;5.86;100.00
54936;BME280;40838;50.676;7.838;2023-04-29T07:18:46;98328.59;;;5.82;100.00
54936;BME280;40838;50.676;7.838;2023-04-29T07:21:12;98328.56;;;6.21;100.00
54936;BME280;40838;50.676;7.838;2023-04-29T07:23:40;98328.91;;;6.30;100.00
54936;BME280;40838;50.676;7.838;2023-04-29T07:26:12;98324.34;;;6.79;100.00
54936;BME280;40838;50.676;7.838;2023-04-29T07:28:42;98330.91;;;6.44;100.00
54936;BME280;40838;50.676;7.838;2023-04-29T07:31:08;98327.31;;;6.07;100.00
54936;BME280;40838;50.676;7.838;2023-04-29T07:33:36;98331.84;;;6.60;100.00
54936;BME280;40838;50.676;7.838;2023-04-29T07:36:02;98341.94;;;6.63;100.00
54936;BME280;40838;50.676;7.838;2023-04-29T07:38:29;98332.84;;;6.81;100.00
54936;BME280;40838;50.676;7.838;2023-04-29T07:40:56;98337.06;;;7.14;100.00
54936;BME280;40838;50.676;7.838;2023-04-29T07:43:24;98339.97;;;7.13;100.00
54936;BME280;40838;50.676;7.838;2023-04-29T07:45:51;98339.09;;;6.70;100.00
54936;BME280;40838;50.676;7.838;2023-04-29T07:48:18;98346.16;;;6.91;100.00
54936;BME280;40838;50.676;7.838;2023-04-29T07:50:45;98350.56;;;7.13;100.00
54936;BME280;40838;50.676;7.838;2023-04-29T07:53:12;98349.84;;;7.23;100.00
54936;BME280;40838;50.676;7.838;2023-04-29T07:55:40;98353.38;;;6.69;100.00
54936;BME280;40838;50.676;7.838;2023-04-29T07:58:07;98352.94;;;6.50;100.00
54936;BME280;40838;50.676;7.838;2023-04-29T08:00:35;98356.81;;;6.42;100.00
54936;BME280;40838;50.676;7.838;2023-04-29T08:03:06;98356.16;;;6.57;100.00
54936;BME280;40838;50.676;7.838;2023-04-29T08:05:32;98362.47;;;6.51;100.00
54936;BME280;40838;50.676;7.838;2023-04-29T08:07:59;98366.81;;;6.13;100.00
54936;BME280;40838;50.676;7.838;2023-04-29T08:10:25;98368.59;;;6.30;100.00
54936;BME280;40838;50.676;7.838;2023-04-29T08:12:52;98372.72;;;6.69;100.00
54936;BME280;40838;50.676;7.838;2023-04-29T08:15:20;98368.50;;;6.46;100.00
54936;BME280;40838;50.676;7.838;2023-04-29T08:17:50;98376.25;;;6.53;100.00
54936;BME280;40838;50.676;7.838;2023-04-29T08:20:16;98381.25;;;6.77;100.00
54936;BME280;40838;50.676;7.838;2023-04-29T08:22:43;98375.25;;;6.86;100.00
54936;BME280;40838;50.676;7.838;2023-04-29T08:25:10;98385.09;;;6.64;100.00
54936;BME280;40838;50.676;7.838;2023-04-29T08:27:37;98380.53;;;6.32;100.00
54936;BME280;40838;50.676;7.838;2023-04-29T08:30:04;98384.19;;;6.80;100.00
54936;BME280;40838;50.676;7.838;2023-04-29T08:32:31;98384.16;;;7.07;100.00
54936;BME280;40838;50.676;7.838;2023-04-29T08:35:01;98396.19;;;6.88;100.00
54936;BME280;40838;50.676;7.838;2023-04-29T08:37:29;98393.66;;;7.30;100.00
54936;BME280;40838;50.676;7.838;2023-04-29T08:39:56;98402.72;;;6.31;100.00
54936;BME280;40838;50.676;7.838;2023-04-29T08:42:28;98395.03;;;6.79;100.00
54936;BME280;40838;50.676;7.838;2023-04-29T08:44:57;98400.16;;;7.18;100.00
54936;BME280;40838;50.676;7.838;2023-04-29T08:47:25;98402.91;;;7.28;100.00
54936;BME280;40838;50.676;7.838;2023-04-29T08:49:53;98410.81;;;6.96;100.00
54936;BME280;40838;50.676;7.838;2023-04-29T08:52:21;98401.91;;;7.34;100.00
54936;BME280;40838;50.676;7.838;2023-04-29T08:54:47;98403.78;;;7.38;100.00
54936;BME280;40838;50.676;7.838;2023-04-29T08:57:14;98401.63;;;7.35;100.00
54936;BME280;40838;50.676;7.838;2023-04-29T08:59:41;98398.28;;;7.18;100.00
54936;BME280;40838;50.676;7.838;2023-04-29T09:02:07;98400.56;;;7.36;100.00
54936;BME280;40838;50.676;7.838;2023-04-29T09:04:39;98401.88;;;7.66;100.00
54936;BME280;40838;50.676;7.838;2023-04-29T09:07:07;98410.38;;;7.31;100.00
54936;BME280;40838;50.676;7.838;2023-04-29T09:09:40;98407.50;;;7.37;100.00
54936;BME280;40838;50.676;7.838;2023-04-29T09:12:07;98412.38;;;7.24;100.00
54936;BME280;40838;50.676;7.838;2023-04-29T09:14:34;98423.72;;;7.19;100.00
54936;BME280;40838;50.676;7.838;2023-04-29T09:17:01;98414.56;;;7.64;100.00
54936;BME280;40838;50.676;7.838;2023-04-29T09:19:29;98416.03;;;7.92;100.00
54936;BME280;40838;50.676;7.838;2023-04-29T09:21:57;98423.00;;;7.98;100.00
54936;BME280;40838;50.676;7.838;2023-04-29T09:24:24;98432.03;;;7.60;100.00
54936;BME280;40838;50.676;7.838;2023-04-29T09:26:52;98432.19;;;7.48;100.00
54936;BME280;40838;50.676;7.838;2023-04-29T09:29:19;98435.00;;;7.69;100.00
54936;BME280;40838;50.676;7.838;2023-04-29T09:31:46;98433.09;;;8.06;100.00
54936;BME280;40838;50.676;7.838;2023-04-29T09:34:13;98428.72;;;8.27;100.00
54936;BME280;40838;50.676;7.838;2023-04-29T09:36:41;98441.53;;;7.93;100.00
54936;BME280;40838;50.676;7.838;2023-04-29T09:39:10;98439.81;;;8.19;100.00
54936;BME280;40838;50.676;7.838;2023-04-29T09:41:37;98443.06;;;8.37;100.00
54936;BME280;40838;50.676;7.838;2023-04-29T09:44:06;98449.03;;;8.06;100.00
54936;BME280;40838;50.676;7.838;2023-04-29T09:46:33;98446.88;;;7.98;100.00
54936;BME280;40838;50.676;7.838;2023-04-29T09:49:01;98456.22;;;7.09;100.00
54936;BME280;40838;50.676;7.838;2023-04-29T09:51:28;98451.19;;;7.67;100.00
54936;BME280;40838;50.676;7.838;2023-04-29T09:53:56;98458.06;;;8.11;100.00
54936;BME280;40838;50.676;7.838;2023-04-29T09:56:23;98450.69;;;8.23;100.00
54936;BME280;40838;50.676;7.838;2023-04-29T09:58:53;98454.13;;;8.13;100.00
54936;BME280;40838;50.676;7.838;2023-04-29T10:01:22;98461.63;;;7.84;100.00
54936;BME280;40838;50.676;7.838;2023-04-29T10:03:56;98460.25;;;8.19;100.00
54936;BME280;40838;50.676;7.838;2023-04-29T10:06:23;98467.88;;;8.05;100.00
54936;BME280;40838;50.676;7.838;2023-04-29T10:08:51;98465.94;;;8.43;100.00
54936;BME280;40838;50.676;7.838;2023-04-29T10:11:18;98467.81;;;8.00;100.00
54936;BME280;40838;50.676;7.838;2023-04-29T10:13:45;98472.06;;;7.58;100.00
54936;BME280;40838;50.676;7.838;2023-04-29T10:16:17;98482.84;;;7.47;100.00
54936;BME280;40838;50.676;7.838;2023-04-29T10:18:52;98481.16;;;7.35;100.00
54936;BME280;40838;50.676;7.838;2023-04-29T10:21:20;98491.66;;;7.25;100.00
54936;BME280;40838;50.676;7.838;2023-04-29T10:23:47;98499.91;;;7.07;100.00
54936;BME280;40838;50.676;7.838;2023-04-29T10:26:14;98493.53;;;7.03;100.00
54936;BME280;40838;50.676;7.838;2023-04-29T10:28:41;98493.31;;;7.31;100.00
54936;BME280;40838;50.676;7.838;2023-04-29T10:31:10;98495.59;;;7.23;100.00
54936;BME280;40838;50.676;7.838;2023-04-29T10:33:38;98498.34;;;7.33;100.00
54936;BME280;40838;50.676;7.838;2023-04-29T10:36:07;98490.66;;;7.64;100.00
54936;BME280;40838;50.676;7.838;2023-04-29T10:38:34;98482.84;;;7.84;100.00
54936;BME280;40838;50.676;7.838;2023-04-29T10:41:06;98486.84;;;7.87;100.00
54936;BME280;40838;50.676;7.838;2023-04-29T10:43:34;98495.81;;;8.23;100.00
54936;BME280;40838;50.676;7.838;2023-04-29T10:46:16;98497.38;;;8.66;100.00
54936;BME280;40838;50.676;7.838;2023-04-29T10:48:45;98491.69;;;8.47;100.00
54936;BME280;40838;50.676;7.838;2023-04-29T10:51:26;98492.31;;;8.60;100.00
54936;BME280;40838;50.676;7.838;2023-04-29T10:53:57;98496.88;;;8.27;100.00
54936;BME280;40838;50.676;7.838;2023-04-29T10:56:29;98499.84;;;8.36;100.00
54936;BME280;40838;50.676;7.838;2023-04-29T10:59:00;98500.50;;;8.53;100.00
54936;BME280;40838;50.676;7.838;2023-04-29T11:01:39;98505.44;;;8.34;100.00
54936;BME280;40838;50.676;7.838;2023-04-29T11:04:06;98510.91;;;8.17;100.00
54936;BME280;40838;50.676;7.838;2023-04-29T11:06:44;98503.97;;;8.11;100.00
54936;BME280;40838;50.676;7.838;2023-04-29T11:09:12;98513.38;;;7.92;100.00
54936;BME280;40838;50.676;7.838;2023-04-29T11:11:44;98506.34;;;8.07;100.00
54936;BME280;40838;50.676;7.838;2023-04-29T11:14:11;98508.97;;;8.02;100.00
54936;BME280;40838;50.676;7.838;2023-04-29T11:16:45;98511.94;;;7.74;100.00
54936;BME280;40838;50.676;7.838;2023-04-29T11:19:13;98511.81;;;7.91;100.00
54936;BME280;40838;50.676;7.838;2023-04-29T11:21:40;98517.75;;;7.38;100.00
54936;BME280;40838;50.676;7.838;2023-04-29T11:24:08;98515.25;;;7.27;100.00
54936;BME280;40838;50.676;7.838;2023-04-29T11:26:36;98524.16;;;7.43;100.00
54936;BME280;40838;50.676;7.838;2023-04-29T11:29:05;98519.75;;;7.91;100.00
54936;BME280;40838;50.676;7.838;2023-04-29T11:31:34;98524.22;;;7.53;100.00
54936;BME280;40838;50.676;7.838;2023-04-29T11:34:02;98527.72;;;7.58;100.00
54936;BME280;40838;50.676;7.838;2023-04-29T11:36:30;98520.53;;;7.27;100.00
54936;BME280;40838;50.676;7.838;2023-04-29T11:38:58;98521.66;;;7.95;100.00
54936;BME280;40838;50.676;7.838;2023-04-29T11:41:27;98530.94;;;7.33;100.00
54936;BME280;40838;50.676;7.838;2023-04-29T11:43:54;98534.31;;;7.88;100.00
54936;BME280;40838;50.676;7.838;2023-04-29T11:46:20;98537.59;;;7.68;100.00
54936;BME280;40838;50.676;7.838;2023-04-29T11:48:47;98533.09;;;8.01;100.00
54936;BME280;40838;50.676;7.838;2023-04-29T11:51:15;98538.28;;;7.86;100.00
54936;BME280;40838;50.676;7.838;2023-04-29T11:53:43;98535.91;;;7.89;100.00
54936;BME280;40838;50.676;7.838;2023-04-29T11:56:10;98546.34;;;7.64;100.00
54936;BME280;40838;50.676;7.838;2023-04-29T11:58:38;98549.19;;;7.57;100.00
54936;BME280;40838;50.676;7.838;2023-04-29T12:01:07;98543.09;;;7.29;100.00
54936;BME280;40838;50.676;7.838;2023-04-29T12:03:34;98550.31;;;7.34;100.00
54936;BME280;40838;50.676;7.838;2023-04-29T12:06:02;98550.25;;;7.56;100.00
54936;BME280;40838;50.676;7.838;2023-04-29T12:08:30;98549.34;;;6.96;100.00
54936;BME280;40838;50.676;7.838;2023-04-29T12:10:58;98548.41;;;7.29;100.00
54936;BME280;40838;50.676;7.838;2023-04-29T12:13:26;98548.81;;;7.21;100.00
54936;BME280;40838;50.676;7.838;2023-04-29T12:15:54;98551.00;;;7.51;100.00
54936;BME280;40838;50.676;7.838;2023-04-29T12:18:21;98550.91;;;7.19;100.00
54936;BME280;40838;50.676;7.838;2023-04-29T12:20:48;98547.59;;;7.07;100.00
54936;BME280;40838;50.676;7.838;2023-04-29T12:23:16;98563.63;;;7.17;100.00
54936;BME280;40838;50.676;7.838;2023-04-29T12:25:46;98555.00;;;7.27;100.00
54936;BME280;40838;50.676;7.838;2023-04-29T12:28:14;98555.97;;;7.43;100.00
54936;BME280;40838;50.676;7.838;2023-04-29T12:30:42;98557.19;;;7.13;100.00
54936;BME280;40838;50.676;7.838;2023-04-29T12:33:10;98552.75;;;7.41;100.00
54936;BME280;40838;50.676;7.838;2023-04-29T12:35:40;98558.53;;;7.97;100.00
54936;BME280;40838;50.676;7.838;2023-04-29T12:38:07;98563.97;;;7.80;100.00
54936;BME280;40838;50.676;7.838;2023-04-29T12:40:35;98561.25;;;7.43;100.00
54936;BME280;40838;50.676;7.838;2023-04-29T12:43:05;98561.53;;;7.73;100.00
54936;BME280;40838;50.676;7.838;2023-04-29T12:45:32;98569.44;;;8.00;100.00
54936;BME280;40838;50.676;7.838;2023-04-29T12:47:59;98570.25;;;8.06;100.00
54936;BME280;40838;50.676;7.838;2023-04-29T12:50:30;98566.06;;;8.10;100.00
54936;BME280;40838;50.676;7.838;2023-04-29T12:52:57;98564.06;;;7.31;100.00
54936;BME280;40838;50.676;7.838;2023-04-29T12:55:24;98570.84;;;7.76;100.00
54936;BME280;40838;50.676;7.838;2023-04-29T12:57:51;98568.84;;;7.93;100.00
54936;BME280;40838;50.676;7.838;2023-04-29T13:00:18;98572.09;;;7.41;100.00
54936;BME280;40838;50.676;7.838;2023-04-29T13:02:45;98570.53;;;7.45;100.00
54936;BME280;40838;50.676;7.838;2023-04-29T13:05:12;98573.16;;;7.67;100.00
54936;BME280;40838;50.676;7.838;2023-04-29T13:07:41;98569.25;;;7.75;100.00
54936;BME280;40838;50.676;7.838;2023-04-29T13:10:08;98578.28;;;7.79;100.00